Time;durP1;ratioP1;P1;durP2;ratioP2;P2;SDS_P1;SDS_P2;PMS_P1;PMS_P2;Temp;Humidity;BMP_temperature;BMP_pressure;BME280_temperature;BME280_humidity;BME280_pressure;Samples;Min_cycle;Max_cycle;Signal;HPM_P1;HPM_P2
2023/09/15 00:00:25;;;;;;;3.88;2.40;;;;;;;17.03;39.14;101615.94;4912893;29;20043;-83
2023/09/15 00:02:56;;;;;;;3.50;2.03;;;;;;;17.01;39.11;101610.56;4927491;29;21210;-83
2023/09/15 00:05:28;;;;;;;3.83;2.10;;;;;;;17.01;39.45;101612.47;4912728;29;20043;-82
2023/09/15 00:07:57;;;;;;;3.67;2.20;;;;;;;16.99;39.12;101617.28;4913755;29;20070;-82
2023/09/15 00:10:27;;;;;;;4.80;2.40;;;;;;;16.99;39.32;101606.22;4912993;29;20386;-82
2023/09/15 00:12:55;;;;;;;3.60;2.10;;;;;;;16.96;39.79;101607.38;4911025;29;20039;-83
2023/09/15 00:15:23;;;;;;;3.90;2.22;;;;;;;16.95;39.51;101616.69;4915414;29;20058;-82
2023/09/15 00:17:51;;;;;;;3.95;2.42;;;;;;;16.95;39.42;101610.31;4909922;29;20154;-83
2023/09/15 00:20:20;;;;;;;3.72;2.22;;;;;;;16.93;39.29;101609.59;4929737;29;20051;-83
2023/09/15 00:22:50;;;;;;;4.85;2.50;;;;;;;16.93;39.75;101615.09;4918028;29;20529;-83
2023/09/15 00:25:19;;;;;;;4.07;2.38;;;;;;;16.91;39.37;101603.34;4912270;29;20104;-83
2023/09/15 00:27:51;;;;;;;3.65;2.25;;;;;;;16.90;39.81;101596.97;4909326;29;20140;-86
2023/09/15 00:30:21;;;;;;;4.03;2.13;;;;;;;16.88;39.48;101606.44;4910464;29;20040;-85
2023/09/15 00:32:50;;;;;;;4.63;2.42;;;;;;;16.87;39.92;101600.03;4913874;29;20643;-86
2023/09/15 00:35:20;;;;;;;3.65;2.35;;;;;;;16.87;39.45;101602.78;4932380;29;20134;-86
2023/09/15 00:37:50;;;;;;;4.30;2.40;;;;;;;16.86;39.83;101597.41;4914478;29;20063;-86
2023/09/15 00:40:20;;;;;;;4.32;2.65;;;;;;;16.84;40.00;101591.16;4913413;29;20115;-83
2023/09/15 00:42:51;;;;;;;6.45;2.42;;;;;;;16.85;40.04;101595.69;4931452;29;20186;-84
2023/09/15 00:45:21;;;;;;;4.10;2.30;;;;;;;16.83;39.85;101592.19;4915142;29;20131;-83
2023/09/15 00:47:53;;;;;;;4.05;2.42;;;;;;;16.82;39.69;101593.25;4912800;29;20047;-84
2023/09/15 00:50:24;;;;;;;3.88;2.20;;;;;;;16.80;39.75;101598.94;4915868;29;20138;-84
2023/09/15 00:52:57;;;;;;;3.72;2.20;;;;;;;16.77;39.78;101592.84;4914770;29;20106;-82
2023/09/15 00:55:26;;;;;;;3.80;2.30;;;;;;;16.73;39.63;101585.91;4918152;29;20052;-83
2023/09/15 00:57:58;;;;;;;4.03;2.50;;;;;;;16.75;40.40;101590.22;4916256;29;20051;-83
2023/09/15 01:00:27;;;;;;;5.53;2.95;;;;;;;16.71;40.12;101582.41;4932496;29;20048;-84
2023/09/15 01:02:56;;;;;;;4.85;3.10;;;;;;;16.70;39.82;101592.59;4917840;29;21271;-84
2023/09/15 01:05:25;;;;;;;4.60;2.60;;;;;;;16.69;40.05;101576.16;4932634;29;20051;-84
2023/09/15 01:07:54;;;;;;;4.80;2.50;;;;;;;16.67;40.07;101580.97;4929678;29;20059;-84
2023/09/15 01:10:24;;;;;;;5.18;2.55;;;;;;;16.66;39.71;101571.81;4917343;29;20070;-84
2023/09/15 01:12:54;;;;;;;4.80;2.65;;;;;;;16.64;39.72;101576.66;4911919;29;20059;-83
2023/09/15 01:15:29;;;;;;;6.50;3.00;;;;;;;16.65;40.31;101572.88;4916961;29;20119;-84
2023/09/15 01:18:03;;;;;;;5.78;3.10;;;;;;;16.64;40.04;101568.34;4931742;29;20115;-84
2023/09/15 01:20:54;;;;;;;4.78;2.88;;;;;;;16.63;40.41;101569.38;4918927;29;20369;-83
2023/09/15 01:23:39;;;;;;;5.38;3.17;;;;;;;16.61;40.52;101569.53;4928906;29;20234;-84
2023/09/15 01:26:24;;;;;;;5.32;2.80;;;;;;;16.60;39.96;101562.25;4916590;29;20484;-84
2023/09/15 01:29:13;;;;;;;6.60;2.55;;;;;;;16.58;40.23;101568.97;4912541;29;20081;-84
2023/09/15 01:31:44;;;;;;;5.10;2.63;;;;;;;16.56;40.32;101568.28;4915488;29;20154;-84
2023/09/15 01:34:13;;;;;;;5.65;2.50;;;;;;;16.52;40.18;101564.94;4916431;29;20499;-84
2023/09/15 01:36:42;;;;;;;5.20;2.70;;;;;;;16.50;40.04;101557.81;4933052;29;20147;-84
2023/09/15 01:39:10;;;;;;;3.80;2.42;;;;;;;16.47;40.22;101561.78;4933326;29;20044;-84
2023/09/15 01:41:38;;;;;;;4.00;2.25;;;;;;;16.44;39.92;101562.09;4907002;29;20051;-84
2023/09/15 01:44:06;;;;;;;4.55;2.20;;;;;;;16.44;40.04;101561.22;4916741;29;20048;-83
2023/09/15 01:46:34;;;;;;;3.97;2.30;;;;;;;16.40;40.40;101560.69;4917135;29;20125;-84
2023/09/15 01:49:04;;;;;;;4.50;1.95;;;;;;;;;;4930269;29;20047;-84
2023/09/15 01:51:32;;;;;;;4.80;2.00;;;;;;;16.39;40.09;101567.22;4916351;29;20048;-84
2023/09/15 01:54:01;;;;;;;4.20;1.85;;;;;;;16.38;40.31;101559.94;4913510;29;20529;-83
2023/09/15 01:56:29;;;;;;;3.75;1.85;;;;;;;16.38;40.32;101565.47;4918219;29;20054;-84
2023/09/15 01:58:57;;;;;;;3.95;2.10;;;;;;;16.37;39.97;101566.50;4916252;28;20051;-84
2023/09/15 02:01:25;;;;;;;4.20;2.38;;;;;;;16.36;40.29;101559.22;4916654;29;20053;-84
2023/09/15 02:03:53;;;;;;;3.53;2.03;;;;;;;16.35;40.29;101560.25;4912073;29;20492;-84
2023/09/15 02:06:25;;;;;;;4.47;2.15;;;;;;;16.35;40.26;101554.72;4915404;29;20055;-84
2023/09/15 02:08:53;;;;;;;3.58;2.15;;;;;;;16.33;40.22;101553.16;4910944;29;20161;-83
2023/09/15 02:11:22;;;;;;;3.63;1.90;;;;;;;16.32;39.99;101557.81;4915642;29;20060;-84
2023/09/15 02:13:50;;;;;;;4.30;2.08;;;;;;;16.31;39.90;101556.06;4915774;29;20047;-84
2023/09/15 02:16:18;;;;;;;4.07;1.98;;;;;;;16.29;39.67;101555.34;4931760;29;20099;-84
2023/09/15 02:18:47;;;;;;;4.70;2.20;;;;;;;16.27;39.84;101554.63;4937383;29;20110;-85
2023/09/15 02:21:15;;;;;;;5.90;2.20;;;;;;;16.26;39.83;101559.28;4916290;29;20519;-84
2023/09/15 02:23:45;;;;;;;3.72;2.15;;;;;;;16.25;40.14;101557.53;4912087;29;20051;-84
2023/09/15 02:26:13;;;;;;;3.72;1.98;;;;;;;16.21;40.38;101547.84;4931256;29;20234;-83
2023/09/15 02:28:41;;;;;;;3.90;1.98;;;;;;;16.20;40.11;101553.53;4914630;29;20047;-83
2023/09/15 02:31:09;;;;;;;3.80;2.20;;;;;;;16.17;40.32;101545.53;4917434;29;20043;-83
2023/09/15 02:33:37;;;;;;;3.88;1.70;;;;;;;16.15;40.43;101545.69;4913505;29;20112;-83
2023/09/15 02:36:06;;;;;;;4.20;2.10;;;;;;;16.14;40.34;101540.31;4916966;29;20091;-83
2023/09/15 02:38:35;;;;;;;4.53;1.90;;;;;;;16.13;40.43;101544.94;4909487;29;20073;-83
2023/09/15 02:41:04;;;;;;;4.30;2.05;;;;;;;16.12;40.00;101545.97;4915316;29;20480;-83
2023/09/15 02:43:32;;;;;;;4.05;2.00;;;;;;;16.08;40.73;101541.78;4939093;29;20097;-85
2023/09/15 02:46:04;;;;;;;3.50;1.90;;;;;;;16.10;40.25;101544.38;4908240;29;20056;-84
2023/09/15 02:48:33;;;;;;;3.83;2.10;;;;;;;16.03;40.55;101540.50;4912785;29;20135;-84
2023/09/15 02:51:03;;;;;;;4.22;1.95;;;;;;;16.02;40.51;101541.53;4916214;29;20051;-85
2023/09/15 02:53:31;;;;;;;4.80;2.30;;;;;;;16.01;40.25;101529.59;4913820;29;20043;-83
2023/09/15 02:56:02;;;;;;;2.88;1.70;;;;;;;16.00;40.26;101535.31;4914453;29;22418;-84
2023/09/15 02:58:36;;;;;;;3.90;1.70;;;;;;;15.98;40.65;101535.44;4916997;29;20075;-84
2023/09/15 03:01:13;;;;;;;3.95;1.85;;;;;;;15.96;40.68;101522.81;4916505;29;20077;-84
2023/09/15 03:03:46;;;;;;;3.80;1.83;;;;;;;15.91;40.28;101525.19;4913333;29;20158;-84
2023/09/15 03:06:14;;;;;;;4.05;1.90;;;;;;;15.88;40.70;101524.44;4916148;29;20503;-84
2023/09/15 03:08:44;;;;;;;3.30;1.70;;;;;;;15.88;40.42;101518.94;4913364;29;20047;-83
2023/09/15 03:11:16;;;;;;;4.80;2.10;;;;;;;15.87;40.63;101525.47;4914763;29;20070;-84
2023/09/15 03:13:47;;;;;;;3.22;1.80;;;;;;;15.88;40.33;101523.59;4914598;29;20113;-85
2023/09/15 03:16:16;;;;;;;4.20;2.00;;;;;;;15.86;40.58;101520.97;4916046;29;20051;-84
2023/09/15 03:18:46;;;;;;;4.07;1.80;;;;;;;15.84;40.51;101520.25;4914270;29;20165;-84
2023/09/15 03:21:17;;;;;;;3.93;2.07;;;;;;;15.82;40.75;101529.72;4912997;29;20403;-84
2023/09/15 03:23:48;;;;;;;3.58;2.00;;;;;;;15.81;40.55;101526.09;4914490;29;20335;-85
2023/09/15 03:26:16;;;;;;;3.80;1.88;;;;;;;15.81;40.36;101522.47;4915051;29;21023;-84
2023/09/15 03:28:49;;;;;;;3.20;1.90;;;;;;;15.83;40.89;101517.66;4913289;29;20097;-85
2023/09/15 03:31:17;;;;;;;3.05;1.83;;;;;;;15.80;40.48;101526.25;4916499;29;20171;-84
2023/09/15 03:33:45;;;;;;;2.78;1.58;;;;;;;15.79;40.65;101513.47;4919615;29;20174;-85
2023/09/15 03:36:13;;;;;;;4.18;1.90;;;;;;;15.77;40.91;101505.31;4916243;29;20043;-84
2023/09/15 03:38:41;;;;;;;4.45;1.80;;;;;;;15.77;40.86;101508.09;4915752;29;20876;-84
2023/09/15 03:41:12;;;;;;;3.60;1.80;;;;;;;15.76;40.94;101502.72;4916004;29;20266;-84
2023/09/15 03:43:44;;;;;;;3.47;1.70;;;;;;;15.74;40.99;101504.78;4911469;29;20039;-84
2023/09/15 03:46:14;;;;;;;3.20;1.77;;;;;;;15.76;40.56;101497.19;4915668;29;20459;-85
2023/09/15 03:48:42;;;;;;;4.43;2.00;;;;;;;15.72;40.50;101491.13;4916441;29;20515;-83
2023/09/15 03:51:10;;;;;;;3.80;1.80;;;;;;;15.73;40.59;101492.88;4915609;29;20051;-84
2023/09/15 03:53:38;;;;;;;4.63;2.10;;;;;;;15.73;40.71;101487.34;4921291;29;20135;-86
2023/09/15 03:56:06;;;;;;;5.90;1.85;;;;;;;15.71;40.76;101486.63;4915816;29;20115;-85
2023/09/15 03:58:34;;;;;;;3.95;1.88;;;;;;;15.71;41.05;101492.13;4912744;29;20158;-85
2023/09/15 04:01:06;;;;;;;3.80;2.00;;;;;;;15.72;41.08;101493.00;4916427;29;21291;-85
2023/09/15 04:03:36;;;;;;;2.92;1.77;;;;;;;15.72;40.66;101498.53;4929270;29;20032;-84
2023/09/15 04:06:06;;;;;;;4.75;2.00;;;;;;;15.71;41.13;101494.91;4916179;29;20050;-85
2023/09/15 04:08:34;;;;;;;4.03;1.88;;;;;;;15.71;40.66;101492.13;4908802;29;20051;-84
2023/09/15 04:11:01;;;;;;;3.20;1.67;;;;;;;15.71;41.02;101494.03;4920968;29;20047;-84
2023/09/15 04:13:30;;;;;;;4.25;1.80;;;;;;;15.71;40.76;101502.31;4937370;29;21022;-82
2023/09/15 04:16:00;;;;;;;3.45;2.00;;;;;;;15.70;40.64;101506.09;4917886;29;20110;-84
2023/09/15 04:18:28;;;;;;;5.10;1.80;;;;;;;15.70;40.72;101503.31;4910349;29;20043;-83
2023/09/15 04:20:57;;;;;;;4.18;1.90;;;;;;;15.71;41.02;101507.81;4913482;29;20051;-85
2023/09/15 04:23:25;;;;;;;3.35;1.60;;;;;;;15.68;40.58;101502.59;4913835;29;20050;-85
2023/09/15 04:25:53;;;;;;;4.40;2.10;;;;;;;15.67;40.67;101507.25;4921225;29;20051;-84
2023/09/15 04:28:21;;;;;;;3.55;1.75;;;;;;;15.67;40.54;101504.50;4916204;29;20764;-85
2023/09/15 04:30:50;;;;;;;4.07;1.98;;;;;;;15.66;40.29;101502.78;4918320;29;20061;-84
2023/09/15 04:33:18;;;;;;;3.30;1.73;;;;;;;15.66;40.98;101510.19;4917296;29;20058;-84
2023/09/15 04:35:46;;;;;;;3.33;1.73;;;;;;;15.66;40.82;101501.91;4918906;29;20071;-85
2023/09/15 04:38:16;;;;;;;3.63;1.80;;;;;;;15.66;40.76;101502.78;4916673;29;20043;-83
2023/09/15 04:40:43;;;;;;;3.38;1.75;;;;;;;15.64;40.46;101501.19;4917169;29;20591;-83
2023/09/15 04:43:12;;;;;;;3.47;1.70;;;;;;;15.62;41.19;101498.56;4924144;29;20051;-83
2023/09/15 04:45:41;;;;;;;3.65;1.60;;;;;;;15.62;40.77;101503.22;4919185;29;20538;-82
2023/09/15 04:48:09;;;;;;;4.90;1.92;;;;;;;15.61;40.59;101504.22;4934502;29;20044;-82
2023/09/15 04:50:37;;;;;;;4.40;1.98;;;;;;;15.59;41.11;101498.88;4917587;29;20075;-83
2023/09/15 04:53:07;;;;;;;3.42;1.90;;;;;;;15.59;40.88;101495.25;4914478;29;20160;-83
2023/09/15 04:55:37;;;;;;;3.90;2.47;;;;;;;15.59;40.81;101498.88;4912123;29;20779;-83
2023/09/15 04:58:06;;;;;;;4.38;2.05;;;;;;;15.56;40.86;101496.44;4914377;29;20403;-83
2023/09/15 05:00:35;;;;;;;3.83;1.95;;;;;;;15.55;41.23;101502.09;4917440;29;20047;-83
2023/09/15 05:03:04;;;;;;;4.35;1.90;;;;;;;15.54;41.15;101506.72;4914838;29;20059;-83
2023/09/15 05:05:33;;;;;;;3.78;1.75;;;;;;;15.52;40.99;101501.38;4916934;29;20091;-83
2023/09/15 05:08:01;;;;;;;4.07;1.70;;;;;;;15.51;41.24;101504.28;4918390;29;20048;-83
2023/09/15 05:10:30;;;;;;;3.28;1.67;;;;;;;15.50;40.77;101508.06;4919722;29;20554;-83
2023/09/15 05:13:05;;;;;;;3.70;1.80;;;;;;;15.52;40.88;101506.00;4916116;29;20416;-84
2023/09/15 05:15:35;;;;;;;3.53;1.70;;;;;;;15.48;41.20;101510.97;4919128;29;20501;-83
2023/09/15 05:18:04;;;;;;;4.82;1.85;;;;;;;15.48;41.06;101512.88;4917668;29;20135;-83
2023/09/15 05:20:33;;;;;;;3.63;1.90;;;;;;;15.48;40.76;101512.88;4922432;29;20070;-83
2023/09/15 05:23:03;;;;;;;3.30;1.77;;;;;;;15.47;41.19;101508.38;4917178;29;20531;-84
2023/09/15 05:25:31;;;;;;;3.10;2.00;;;;;;;15.46;41.03;101510.25;4921042;29;20056;-83
2023/09/15 05:28:01;;;;;;;3.67;2.05;;;;;;;15.47;41.31;101517.50;4918310;29;20059;-83
2023/09/15 05:34:03;;;;;;;5.18;2.05;;;;;;;15.44;41.40;101509.53;4917711;29;21150;-84
2023/09/15 05:36:35;;;;;;;4.13;1.95;;;;;;;15.43;41.04;101517.94;4916441;29;20060;-83
2023/09/15 05:39:03;;;;;;;3.63;1.90;;;;;;;15.45;41.34;101516.78;4916123;29;20258;-83
2023/09/15 05:41:32;;;;;;;3.80;1.98;;;;;;;15.46;41.30;101524.03;4929133;29;20058;-83
2023/09/15 05:44:18;;;;;;;3.95;2.20;;;;;;;15.47;41.33;101525.78;4902653;29;20068;-83
2023/09/15 05:46:48;;;;;;;3.83;1.90;;;;;;;15.44;41.65;101522.44;4916145;29;20056;-83
2023/09/15 05:49:16;;;;;;;4.57;2.10;;;;;;;15.43;41.49;101520.69;4918558;29;20051;-83
2023/09/15 05:51:44;;;;;;;4.28;2.17;;;;;;;15.42;41.29;101522.59;4924675;29;20048;-84
2023/09/15 05:54:12;;;;;;;5.38;2.30;;;;;;;15.41;41.42;101529.16;4938061;29;20062;-83
2023/09/15 05:56:40;;;;;;;4.18;1.83;;;;;;;15.41;41.11;101529.16;4915643;29;20059;-83
2023/09/15 05:59:10;;;;;;;4.18;2.08;;;;;;;15.41;41.47;101522.78;4914999;29;20135;-83
2023/09/15 06:01:39;;;;;;;4.22;1.88;;;;;;;15.38;41.81;101521.16;4912923;29;20056;-83
2023/09/15 06:04:07;;;;;;;4.55;1.83;;;;;;;15.37;41.45;101522.19;4914573;29;20071;-83
2023/09/15 06:06:35;;;;;;;3.53;2.10;;;;;;;15.35;41.65;101521.44;4915987;29;20424;-83
2023/09/15 06:09:04;;;;;;;3.28;1.75;;;;;;;15.33;41.63;101517.97;4935288;29;20123;-83
2023/09/15 06:11:32;;;;;;;4.15;1.92;;;;;;;15.32;41.66;101518.97;4940175;29;20059;-83
2023/09/15 06:13:59;;;;;;;5.00;1.92;;;;;;;15.31;41.94;101513.59;4922928;29;20139;-83
2023/09/15 06:16:29;;;;;;;3.70;2.10;;;;;;;15.31;41.83;101510.84;4912821;29;20059;-84
2023/09/15 06:18:57;;;;;;;3.65;1.92;;;;;;;15.30;41.85;101509.09;4914850;29;20059;-83
2023/09/15 06:21:25;;;;;;;3.60;2.00;;;;;;;15.28;41.79;101512.00;4914599;29;20052;-83
2023/09/15 06:23:53;;;;;;;3.72;1.80;;;;;;;15.28;41.75;101517.53;4932842;29;20166;-84
2023/09/15 06:26:21;;;;;;;3.80;1.98;;;;;;;15.27;41.57;101518.53;4917723;29;20051;-85
2023/09/15 06:28:49;;;;;;;5.53;2.20;;;;;;;15.26;41.83;101515.97;4934790;29;20054;-85
2023/09/15 06:31:18;;;;;;;4.72;2.25;;;;;;;15.26;42.08;101510.44;4919051;29;20051;-84
2023/09/15 06:33:48;;;;;;;4.53;1.83;;;;;;;15.27;41.99;101514.91;4916883;29;20059;-84
2023/09/15 06:36:19;;;;;;;3.47;1.90;;;;;;;15.28;42.13;101508.38;4917457;29;20047;-84
2023/09/15 06:39:02;;;;;;;3.20;1.90;;;;;;;15.28;42.26;101508.38;4918915;29;20071;-85
2023/09/15 06:41:30;;;;;;;2.95;1.60;;;;;;;15.29;41.95;101511.00;4921535;29;20051;-86
2023/09/15 06:44:11;;;;;;;3.90;1.80;;;;;;;15.35;42.26;101509.56;4919713;29;20047;-84
2023/09/15 06:46:44;;;;;;;3.72;1.80;;;;;;;15.35;42.21;101499.38;4930437;29;20061;-84
2023/09/15 06:49:41;;;;;;;3.85;2.00;;;;;;;15.40;42.95;101499.81;4930111;29;20063;-85
2023/09/15 06:52:29;;;;;;;3.50;1.70;;;;;;;15.49;43.33;101498.94;4880045;29;20055;-84
2023/09/15 06:55:01;;;;;;;3.72;1.63;;;;;;;15.60;43.21;101488.69;4918451;29;20593;-84
2023/09/15 06:57:29;;;;;;;5.35;1.95;;;;;;;15.69;43.78;101490.53;4917632;29;20142;-85
2023/09/15 06:59:58;;;;;;;4.22;1.80;;;;;;;15.84;43.88;101484.38;4915320;29;20107;-85
2023/09/15 07:02:26;;;;;;;4.22;1.90;;;;;;;16.00;44.17;101486.44;4912908;29;20051;-85
2023/09/15 07:04:55;;;;;;;3.92;1.90;;;;;;;16.21;44.04;101498.13;4913731;29;20052;-84
2023/09/15 07:07:23;;;;;;;3.85;1.77;;;;;;;16.38;44.32;101498.31;4911850;29;20051;-85
2023/09/15 07:09:52;;;;;;;4.82;2.10;;;;;;;16.57;43.66;101504.56;4928923;29;20058;-85
2023/09/15 07:12:20;;;;;;;4.40;1.98;;;;;;;16.78;43.05;101508.88;4911539;29;20056;-86
2023/09/15 07:14:49;;;;;;;4.45;2.00;;;;;;;16.98;43.65;101507.72;4909323;29;20059;-83
2023/09/15 07:17:17;;;;;;;5.38;2.10;;;;;;;17.21;43.40;101500.63;4912734;29;20051;-84
2023/09/15 07:19:46;;;;;;;3.70;1.80;;;;;;;17.44;42.92;101500.94;4915849;29;20059;-84
2023/09/15 07:22:16;;;;;;;3.78;1.73;;;;;;;17.70;42.85;101500.91;4924627;29;20531;-84
2023/09/15 07:24:44;;;;;;;4.40;1.60;;;;;;;17.92;42.79;101499.47;4912579;29;20051;-86
2023/09/15 07:27:12;;;;;;;4.72;2.10;;;;;;;18.15;42.80;101500.59;4913093;29;20056;-84
2023/09/15 07:29:40;;;;;;;3.05;1.70;;;;;;;18.38;42.16;101493.41;4914931;29;20143;-84
2023/09/15 07:32:11;;;;;;;3.75;1.73;;;;;;;18.58;41.93;101484.78;4913962;29;20055;-85
2023/09/15 07:34:39;;;;;;;3.75;2.05;;;;;;;18.80;41.63;101481.34;4918664;29;20059;-85
2023/09/15 07:37:08;;;;;;;3.30;1.67;;;;;;;18.98;40.92;101478.38;4918668;29;20052;-84
2023/09/15 07:39:38;;;;;;;3.72;1.80;;;;;;;19.17;40.02;101480.78;4913006;29;20209;-85
2023/09/15 07:42:08;;;;;;;4.38;2.20;;;;;;;19.30;39.50;101475.56;4918711;29;20067;-84
2023/09/15 07:44:38;;;;;;;3.28;1.75;;;;;;;19.40;39.60;101475.38;4918689;29;20447;-85
2023/09/15 07:47:09;;;;;;;3.63;1.65;;;;;;;19.52;39.24;101477.63;4916428;29;20070;-85
2023/09/15 07:49:40;;;;;;;2.75;1.52;;;;;;;19.58;38.92;101474.13;4915656;29;20056;-84
2023/09/15 07:52:08;;;;;;;5.18;2.10;;;;;;;19.69;38.33;101474.78;4915812;29;20063;-84
2023/09/15 07:54:38;;;;;;;3.05;2.00;;;;;;;19.79;37.93;101478.22;4909782;29;20111;-84
2023/09/15 07:57:06;;;;;;;4.05;1.70;;;;;;;19.81;38.18;101473.34;4912757;29;20055;-83
2023/09/15 07:59:34;;;;;;;4.30;1.70;;;;;;;19.86;38.22;101471.78;4914502;29;20055;-84
2023/09/15 08:02:04;;;;;;;4.20;1.80;;;;;;;19.89;37.82;101470.53;4920039;29;20062;-83
2023/09/15 08:04:32;;;;;;;4.53;1.85;;;;;;;19.92;37.41;101471.06;4910193;29;20146;-83
2023/09/15 08:07:02;;;;;;;3.72;1.65;;;;;;;19.93;37.35;101464.47;4909290;29;20056;-84
2023/09/15 08:09:34;;;;;;;3.53;1.70;;;;;;;19.97;36.74;101462.19;4903992;29;20047;-83
2023/09/15 08:12:04;;;;;;;3.60;1.65;;;;;;;19.97;36.87;101464.97;4911538;29;20480;-83
2023/09/15 08:14:32;;;;;;;3.67;1.65;;;;;;;19.94;36.76;101465.34;4913171;29;20444;-83
2023/09/15 08:17:00;;;;;;;3.45;1.55;;;;;;;19.93;36.55;101461.69;4909020;29;20382;-83
2023/09/15 08:19:29;;;;;;;3.15;1.75;;;;;;;19.91;36.63;101465.69;4912066;29;20114;-85
2023/09/15 08:22:00;;;;;;;2.95;1.45;;;;;;;19.88;36.64;101463.22;4913927;29;20051;-85
2023/09/15 08:24:28;;;;;;;4.05;1.70;;;;;;;19.85;36.15;101458.06;4911438;29;20039;-86
2023/09/15 08:26:56;;;;;;;5.05;1.67;;;;;;;19.80;36.03;101460.50;4910229;29;20380;-86
2023/09/15 08:29:26;;;;;;;3.00;1.77;;;;;;;19.77;35.81;101461.75;4910632;29;20066;-86
2023/09/15 08:31:57;;;;;;;3.15;1.48;;;;;;;19.72;35.87;101460.53;4910130;29;20131;-86
2023/09/15 08:34:25;;;;;;;3.92;1.80;;;;;;;19.65;36.41;101457.59;4913307;29;20538;-86
2023/09/15 08:36:53;;;;;;;3.70;1.70;;;;;;;19.62;36.47;101452.44;4919666;29;20047;-86
2023/09/15 08:39:21;;;;;;;4.40;1.60;;;;;;;19.59;36.55;101448.09;4918933;29;20051;-85
2023/09/15 08:41:54;;;;;;;4.10;1.45;;;;;;;19.62;36.29;101449.66;4921033;29;20095;-87
2023/09/15 08:44:23;;;;;;;5.03;1.70;;;;;;;19.59;36.79;101456.44;4918796;29;20043;-86
2023/09/15 08:46:53;;;;;;;3.90;1.73;;;;;;;19.63;36.33;101457.78;4934669;29;20055;-87
2023/09/15 08:49:21;;;;;;;3.85;1.65;;;;;;;19.63;36.76;101449.44;4914536;29;21323;-86
2023/09/15 08:51:50;;;;;;;3.70;1.75;;;;;;;19.68;36.65;101454.50;4910591;29;20043;-87
2023/09/15 08:54:18;;;;;;;4.53;1.80;;;;;;;19.71;36.67;101462.44;4909674;29;20090;-86
2023/09/15 08:56:46;;;;;;;4.25;1.67;;;;;;;19.74;37.14;101456.53;4926605;29;20046;-86
2023/09/15 08:59:16;;;;;;;3.55;1.83;;;;;;;19.76;36.94;101454.44;4912918;29;20626;-85
2023/09/15 09:01:44;;;;;;;4.47;1.70;;;;;;;19.79;36.40;101453.25;4914525;29;20051;-86
2023/09/15 09:04:16;;;;;;;3.65;1.80;;;;;;;19.82;36.31;101455.63;4916250;29;20542;-86
2023/09/15 09:06:45;;;;;;;;;;;;;;;19.52;36.94;101454.53;4913149;29;20048;-85
2023/09/15 09:09:15;;;;;;;3.08;1.30;;;;;;;19.81;36.72;101453.91;4913556;29;19937;-83
2023/09/15 09:11:43;;;;;;;2.72;1.58;;;;;;;19.86;36.71;101451.47;4914909;29;20152;-83
2023/09/15 09:14:12;;;;;;;3.00;1.40;;;;;;;19.89;36.64;101457.50;4913901;29;20047;-86
2023/09/15 09:16:43;;;;;;;4.05;1.60;;;;;;;19.94;36.71;101452.31;4917531;29;20055;-86
2023/09/15 09:19:14;;;;;;;3.53;1.65;;;;;;;19.95;36.44;101448.47;4914588;29;20505;-85
2023/09/15 09:21:42;;;;;;;3.92;1.73;;;;;;;19.99;36.60;101448.97;4921347;29;20524;-85
2023/09/15 09:24:10;;;;;;;3.50;1.80;;;;;;;20.01;36.33;101449.66;4930887;29;20070;-86
2023/09/15 09:26:39;;;;;;;4.22;1.90;;;;;;;20.04;36.15;101454.84;4907719;29;20074;-86
2023/09/15 09:29:07;;;;;;;3.03;1.55;;;;;;;20.04;35.95;101449.28;4912981;29;20455;-86
2023/09/15 09:31:35;;;;;;;3.28;1.58;;;;;;;20.07;35.96;101448.06;4911597;29;20142;-86
2023/09/15 09:34:04;;;;;;;3.42;1.88;;;;;;;20.09;35.90;101446.84;4917060;29;20153;-84
2023/09/15 09:36:36;;;;;;;3.85;1.80;;;;;;;20.12;35.84;101443.69;4916665;29;20059;-84
2023/09/15 09:39:06;;;;;;;2.95;1.58;;;;;;;20.12;36.06;101443.69;4914979;29;20047;-83
2023/09/15 09:41:36;;;;;;;4.55;1.92;;;;;;;20.17;35.75;101440.38;4916891;29;20044;-83
2023/09/15 09:44:05;;;;;;;3.22;1.60;;;;;;;20.21;35.92;101430.59;4916766;29;21187;-84
2023/09/15 09:46:33;;;;;;;2.45;1.50;;;;;;;20.23;35.74;101425.72;4931538;29;20070;-83
2023/09/15 09:49:01;;;;;;;3.83;1.95;;;;;;;20.26;35.69;101429.03;4929316;29;20158;-84
2023/09/15 09:51:29;;;;;;;3.75;1.73;;;;;;;20.30;35.71;101430.38;4915337;29;20082;-83
2023/09/15 09:53:59;;;;;;;4.75;2.25;;;;;;;20.37;35.94;101430.50;4927704;29;20560;-84
2023/09/15 09:56:27;;;;;;;3.53;1.80;;;;;;;20.41;35.88;101420.75;4914660;29;20055;-83
2023/09/15 09:59:01;;;;;;;3.03;1.90;;;;;;;20.48;35.98;101420.84;4912204;29;20047;-84
2023/09/15 10:01:34;;;;;;;4.15;1.70;;;;;;;20.52;35.91;101428.66;4918485;29;20520;-85
2023/09/15 10:04:05;;;;;;;3.63;1.63;;;;;;;20.59;35.67;101413.00;4917239;29;20197;-84
2023/09/15 10:06:36;;;;;;;3.53;1.70;;;;;;;20.70;36.04;101418.09;4918308;29;20489;-85
2023/09/15 10:09:06;;;;;;;4.25;2.00;;;;;;;20.79;35.39;101424.44;4932764;29;20155;-85
2023/09/15 10:11:35;;;;;;;3.22;1.80;;;;;;;20.85;35.67;101418.16;4914543;29;20051;-86
2023/09/15 10:14:04;;;;;;;4.43;2.10;;;;;;;20.92;35.14;101415.47;4916459;29;20043;-84
2023/09/15 10:16:33;;;;;;;5.82;2.00;;;;;;;21.01;34.78;101415.19;4916421;29;20113;-84
2023/09/15 10:19:03;;;;;;;2.72;1.60;;;;;;;21.07;35.22;101410.78;4915310;29;20036;-84
2023/09/15 10:21:34;;;;;;;3.17;1.67;;;;;;;21.13;34.85;101410.00;4916605;29;20137;-84
2023/09/15 10:24:08;;;;;;;4.50;1.90;;;;;;;21.21;34.37;101412.72;4913460;29;20056;-85
2023/09/15 10:26:41;;;;;;;3.42;1.63;;;;;;;21.25;34.81;101407.63;4921309;29;20073;-84
2023/09/15 10:29:12;;;;;;;3.40;1.65;;;;;;;21.31;34.55;101410.53;4918984;29;20543;-83
2023/09/15 10:31:41;;;;;;;2.75;1.52;;;;;;;21.38;34.64;101399.50;4913515;29;20146;-83
2023/09/15 10:34:10;;;;;;;3.00;1.75;;;;;;;21.42;34.92;101398.06;4936420;29;20065;-83
2023/09/15 10:36:40;;;;;;;4.60;1.95;;;;;;;21.50;34.49;101387.69;4933050;29;20047;-84
2023/09/15 10:39:14;;;;;;;4.05;1.80;;;;;;;21.57;34.58;101386.91;4914512;29;20055;-84
2023/09/15 10:41:46;;;;;;;5.28;2.10;;;;;;;21.63;33.14;101389.78;4914344;29;20062;-84
2023/09/15 10:44:14;;;;;;;4.43;2.03;;;;;;;21.67;34.31;101388.34;4918352;29;20487;-87
2023/09/15 10:46:44;;;;;;;4.10;1.80;;;;;;;21.75;34.26;101390.16;4919133;29;20083;-87
2023/09/15 10:49:18;;;;;;;4.22;1.73;;;;;;;21.81;33.52;101393.03;4917551;29;20106;-86
2023/09/15 10:52:10;;;;;;;4.57;2.28;;;;;;;21.80;33.77;101385.72;4913381;29;20147;-83
2023/09/15 10:54:43;;;;;;;3.70;2.47;;;;;;;21.86;33.46;101384.91;4920022;29;20067;-84
2023/09/15 10:57:11;;;;;;;4.00;1.65;;;;;;;21.88;33.47;101380.03;4927747;29;20500;-85
2023/09/15 10:59:40;;;;;;;3.30;1.60;;;;;;;21.90;33.10;101374.25;4937938;29;20048;-86
2023/09/15 11:02:09;;;;;;;4.00;1.65;;;;;;;21.96;33.14;101381.00;4936970;29;20110;-86
2023/09/15 11:04:37;;;;;;;3.85;1.80;;;;;;;21.97;33.19;101383.59;4918081;29;20043;-85
2023/09/15 11:07:07;;;;;;;2.42;1.52;;;;;;;22.01;32.89;101382.16;4933790;29;20055;-85
2023/09/15 11:09:36;;;;;;;3.55;1.67;;;;;;;22.05;33.25;101369.53;4918090;29;20051;-83
2023/09/15 11:12:06;;;;;;;3.22;1.50;;;;;;;22.11;32.91;101368.72;4935370;29;20051;-86
2023/09/15 11:14:35;;;;;;;3.83;1.67;;;;;;;22.14;33.02;101359.97;4915148;29;20510;-85
2023/09/15 11:17:04;;;;;;;3.10;1.63;;;;;;;22.19;33.23;101353.78;4914492;29;20123;-84
2023/09/15 11:19:36;;;;;;;2.83;1.50;;;;;;;22.24;33.37;101354.09;4915857;29;20138;-84
2023/09/15 11:22:04;;;;;;;3.27;1.60;;;;;;;22.27;32.95;101362.88;4913532;29;20036;-84
2023/09/15 11:24:35;;;;;;;3.38;1.63;;;;;;;22.37;32.19;101350.53;4917941;29;20043;-87
2023/09/15 11:27:05;;;;;;;2.83;1.73;;;;;;;22.42;32.74;101353.63;4913673;29;20400;-86
2023/09/15 11:29:33;;;;;;;2.60;1.63;;;;;;;22.45;32.71;101347.63;4915461;29;20131;-86
2023/09/15 11:32:02;;;;;;;2.78;1.40;;;;;;;22.50;32.76;101336.75;4911810;29;20043;-86
2023/09/15 11:34:34;;;;;;;2.70;1.50;;;;;;;22.56;32.04;101338.75;4913051;29;20059;-86
2023/09/15 11:37:02;;;;;;;2.70;1.33;;;;;;;22.57;32.56;101337.69;4911344;29;20048;-86
2023/09/15 11:39:30;;;;;;;2.90;1.30;;;;;;;22.63;32.36;101334.94;4912878;29;20051;-87
2023/09/15 11:42:01;;;;;;;2.08;1.30;;;;;;;22.69;32.10;101332.38;4913795;29;20420;-85